Terminal Aerodrome Forecast
Issued by NWS

Home | Current Version | Previous Version | Text Only | Print | Product List | Glossary On
Versions: 1 2 3 4 5 6 7 8 9 10 11 12 13 14 15 16 17 18 19 20 21 22 23 24 25 26 27 28 29 30 31
000
FTUS42 KCAE 261721
TAFOGB
TAF
KOGB 261721Z 2618/2718 21006KT P6SM BKN050
     FM270100 21005KT 6SM -SHRA BKN035
     FM270600 23004KT 3SM BR OVC020
     FM271400 26007KT P6SM BKN035=

USA.gov is the U.S. government's official web portal to all federal, state and local government web resources and services.